sensor_id;sensor_type;location;lat;lon;timestamp;P1;durP1;ratioP1;P2;durP2;ratioP2
3006;SDS011;1513;47.650;10.720;2024-01-27T00:01:00;4.03;;;3.30;;
3006;SDS011;1513;47.650;10.720;2024-01-27T00:03:26;6.70;;;3.40;;
3006;SDS011;1513;47.650;10.720;2024-01-27T00:05:52;4.37;;;3.37;;
3006;SDS011;1513;47.650;10.720;2024-01-27T00:08:18;6.10;;;4.00;;
3006;SDS011;1513;47.650;10.720;2024-01-27T00:10:46;6.47;;;3.90;;
3006;SDS011;1513;47.650;10.720;2024-01-27T00:13:12;8.57;;;4.40;;
3006;SDS011;1513;47.650;10.720;2024-01-27T00:15:38;6.50;;;3.80;;
3006;SDS011;1513;47.650;10.720;2024-01-27T00:18:05;5.90;;;3.90;;
3006;SDS011;1513;47.650;10.720;2024-01-27T00:20:31;6.07;;;4.20;;
3006;SDS011;1513;47.650;10.720;2024-01-27T00:22:58;5.27;;;3.73;;
3006;SDS011;1513;47.650;10.720;2024-01-27T00:25:24;5.30;;;3.77;;
3006;SDS011;1513;47.650;10.720;2024-01-27T00:27:50;6.53;;;4.17;;
3006;SDS011;1513;47.650;10.720;2024-01-27T00:30:16;6.77;;;4.37;;
3006;SDS011;1513;47.650;10.720;2024-01-27T00:32:42;8.50;;;4.10;;
3006;SDS011;1513;47.650;10.720;2024-01-27T00:35:09;6.00;;;4.43;;
3006;SDS011;1513;47.650;10.720;2024-01-27T00:37:39;9.23;;;4.37;;
3006;SDS011;1513;47.650;10.720;2024-01-27T00:40:09;7.63;;;3.77;;
3006;SDS011;1513;47.650;10.720;2024-01-27T00:42:36;4.03;;;3.33;;
3006;SDS011;1513;47.650;10.720;2024-01-27T00:45:03;10.37;;;3.93;;
3006;SDS011;1513;47.650;10.720;2024-01-27T00:47:31;5.33;;;3.80;;
3006;SDS011;1513;47.650;10.720;2024-01-27T00:49:57;6.30;;;3.50;;
3006;SDS011;1513;47.650;10.720;2024-01-27T00:52:23;4.40;;;3.23;;
3006;SDS011;1513;47.650;10.720;2024-01-27T00:54:49;5.67;;;3.50;;
3006;SDS011;1513;47.650;10.720;2024-01-27T00:57:15;7.00;;;3.87;;
3006;SDS011;1513;47.650;10.720;2024-01-27T00:59:41;10.73;;;4.10;;
3006;SDS011;1513;47.650;10.720;2024-01-27T01:02:08;8.80;;;4.00;;
3006;SDS011;1513;47.650;10.720;2024-01-27T01:04:34;5.50;;;3.80;;
3006;SDS011;1513;47.650;10.720;2024-01-27T01:07:00;7.63;;;3.73;;
3006;SDS011;1513;47.650;10.720;2024-01-27T01:09:26;5.20;;;3.60;;
3006;SDS011;1513;47.650;10.720;2024-01-27T01:11:53;6.57;;;3.93;;
3006;SDS011;1513;47.650;10.720;2024-01-27T01:14:19;8.33;;;3.47;;
3006;SDS011;1513;47.650;10.720;2024-01-27T01:16:45;7.37;;;3.40;;
3006;SDS011;1513;47.650;10.720;2024-01-27T01:19:12;10.10;;;3.73;;
3006;SDS011;1513;47.650;10.720;2024-01-27T01:21:38;6.93;;;3.60;;
3006;SDS011;1513;47.650;10.720;2024-01-27T01:24:04;4.77;;;3.60;;
3006;SDS011;1513;47.650;10.720;2024-01-27T01:26:30;7.00;;;3.63;;
3006;SDS011;1513;47.650;10.720;2024-01-27T01:28:57;4.83;;;2.73;;
3006;SDS011;1513;47.650;10.720;2024-01-27T01:31:23;9.60;;;3.33;;
3006;SDS011;1513;47.650;10.720;2024-01-27T01:33:50;4.83;;;2.50;;
3006;SDS011;1513;47.650;10.720;2024-01-27T01:36:16;3.37;;;2.60;;
3006;SDS011;1513;47.650;10.720;2024-01-27T01:38:42;4.33;;;2.87;;
3006;SDS011;1513;47.650;10.720;2024-01-27T01:41:08;3.60;;;2.60;;
3006;SDS011;1513;47.650;10.720;2024-01-27T01:43:34;4.70;;;2.93;;
3006;SDS011;1513;47.650;10.720;2024-01-27T01:46:00;8.27;;;2.93;;
3006;SDS011;1513;47.650;10.720;2024-01-27T01:48:27;6.63;;;3.00;;
3006;SDS011;1513;47.650;10.720;2024-01-27T01:50:53;4.80;;;2.73;;
3006;SDS011;1513;47.650;10.720;2024-01-27T01:53:19;8.50;;;4.60;;
3006;SDS011;1513;47.650;10.720;2024-01-27T01:55:46;9.50;;;3.60;;
3006;SDS011;1513;47.650;10.720;2024-01-27T01:58:12;9.40;;;4.00;;
3006;SDS011;1513;47.650;10.720;2024-01-27T02:00:38;8.73;;;3.80;;
3006;SDS011;1513;47.650;10.720;2024-01-27T02:03:05;8.20;;;3.67;;
3006;SDS011;1513;47.650;10.720;2024-01-27T02:05:35;4.60;;;2.53;;
3006;SDS011;1513;47.650;10.720;2024-01-27T02:08:01;9.90;;;3.30;;
3006;SDS011;1513;47.650;10.720;2024-01-27T02:10:29;13.10;;;3.67;;
3006;SDS011;1513;47.650;10.720;2024-01-27T02:13:17;2.90;;;2.60;;
3006;SDS011;1513;47.650;10.720;2024-01-27T02:15:48;4.80;;;3.30;;
3006;SDS011;1513;47.650;10.720;2024-01-27T02:18:15;5.43;;;3.40;;
3006;SDS011;1513;47.650;10.720;2024-01-27T02:20:42;4.10;;;2.97;;
3006;SDS011;1513;47.650;10.720;2024-01-27T02:23:08;10.50;;;3.67;;
3006;SDS011;1513;47.650;10.720;2024-01-27T02:25:34;6.40;;;3.20;;
3006;SDS011;1513;47.650;10.720;2024-01-27T02:28:01;6.30;;;3.93;;
3006;SDS011;1513;47.650;10.720;2024-01-27T02:30:28;7.30;;;3.67;;
3006;SDS011;1513;47.650;10.720;2024-01-27T02:32:57;6.30;;;3.17;;
3006;SDS011;1513;47.650;10.720;2024-01-27T02:35:24;6.30;;;3.60;;
3006;SDS011;1513;47.650;10.720;2024-01-27T02:37:50;7.20;;;3.73;;
3006;SDS011;1513;47.650;10.720;2024-01-27T02:40:16;5.07;;;3.40;;
3006;SDS011;1513;47.650;10.720;2024-01-27T02:42:42;8.70;;;4.20;;
3006;SDS011;1513;47.650;10.720;2024-01-27T02:45:09;6.60;;;3.60;;
3006;SDS011;1513;47.650;10.720;2024-01-27T02:47:38;6.10;;;3.40;;
3006;SDS011;1513;47.650;10.720;2024-01-27T02:50:05;7.37;;;3.93;;
3006;SDS011;1513;47.650;10.720;2024-01-27T02:52:32;11.90;;;4.03;;
3006;SDS011;1513;47.650;10.720;2024-01-27T02:54:58;10.60;;;3.97;;
3006;SDS011;1513;47.650;10.720;2024-01-27T02:57:24;5.90;;;3.90;;
3006;SDS011;1513;47.650;10.720;2024-01-27T02:59:51;5.10;;;2.97;;
3006;SDS011;1513;47.650;10.720;2024-01-27T03:02:17;7.90;;;4.37;;
3006;SDS011;1513;47.650;10.720;2024-01-27T03:04:43;5.33;;;3.07;;
3006;SDS011;1513;47.650;10.720;2024-01-27T03:07:09;6.90;;;4.20;;
3006;SDS011;1513;47.650;10.720;2024-01-27T03:09:35;9.53;;;3.80;;
3006;SDS011;1513;47.650;10.720;2024-01-27T03:12:02;9.03;;;4.77;;
3006;SDS011;1513;47.650;10.720;2024-01-27T03:14:28;11.90;;;4.37;;
3006;SDS011;1513;47.650;10.720;2024-01-27T03:16:54;8.70;;;4.23;;
3006;SDS011;1513;47.650;10.720;2024-01-27T03:19:21;5.40;;;3.63;;
3006;SDS011;1513;47.650;10.720;2024-01-27T03:21:47;6.20;;;3.90;;
3006;SDS011;1513;47.650;10.720;2024-01-27T03:24:13;6.23;;;4.30;;
3006;SDS011;1513;47.650;10.720;2024-01-27T03:26:39;5.87;;;3.67;;
3006;SDS011;1513;47.650;10.720;2024-01-27T03:29:05;11.47;;;4.70;;
3006;SDS011;1513;47.650;10.720;2024-01-27T03:31:32;6.13;;;3.90;;
3006;SDS011;1513;47.650;10.720;2024-01-27T03:33:59;11.53;;;4.07;;
3006;SDS011;1513;47.650;10.720;2024-01-27T03:36:26;8.43;;;3.70;;
3006;SDS011;1513;47.650;10.720;2024-01-27T03:38:53;6.07;;;3.57;;
3006;SDS011;1513;47.650;10.720;2024-01-27T03:41:20;10.53;;;4.20;;
3006;SDS011;1513;47.650;10.720;2024-01-27T03:43:46;8.23;;;3.60;;
3006;SDS011;1513;47.650;10.720;2024-01-27T03:46:13;10.37;;;3.93;;
3006;SDS011;1513;47.650;10.720;2024-01-27T03:48:39;7.60;;;4.23;;
3006;SDS011;1513;47.650;10.720;2024-01-27T03:51:05;7.37;;;3.87;;
3006;SDS011;1513;47.650;10.720;2024-01-27T03:53:31;11.00;;;4.67;;
3006;SDS011;1513;47.650;10.720;2024-01-27T03:55:57;5.70;;;3.73;;
3006;SDS011;1513;47.650;10.720;2024-01-27T03:58:27;9.43;;;4.13;;
3006;SDS011;1513;47.650;10.720;2024-01-27T04:00:53;7.67;;;4.13;;
3006;SDS011;1513;47.650;10.720;2024-01-27T04:03:20;14.17;;;4.53;;
3006;SDS011;1513;47.650;10.720;2024-01-27T04:05:46;9.63;;;4.80;;
3006;SDS011;1513;47.650;10.720;2024-01-27T04:08:12;8.23;;;4.37;;
3006;SDS011;1513;47.650;10.720;2024-01-27T04:10:38;10.47;;;4.63;;
3006;SDS011;1513;47.650;10.720;2024-01-27T04:13:05;14.37;;;4.77;;
3006;SDS011;1513;47.650;10.720;2024-01-27T04:15:34;11.73;;;5.03;;
3006;SDS011;1513;47.650;10.720;2024-01-27T04:18:07;9.80;;;4.77;;
3006;SDS011;1513;47.650;10.720;2024-01-27T04:20:34;9.93;;;4.53;;
3006;SDS011;1513;47.650;10.720;2024-01-27T04:23:01;8.17;;;4.43;;
3006;SDS011;1513;47.650;10.720;2024-01-27T04:25:27;7.23;;;3.73;;
3006;SDS011;1513;47.650;10.720;2024-01-27T04:27:53;5.53;;;3.73;;
3006;SDS011;1513;47.650;10.720;2024-01-27T04:30:20;7.20;;;4.20;;
3006;SDS011;1513;47.650;10.720;2024-01-27T04:32:46;6.70;;;3.63;;
3006;SDS011;1513;47.650;10.720;2024-01-27T04:35:14;12.23;;;3.70;;
3006;SDS011;1513;47.650;10.720;2024-01-27T04:37:41;13.33;;;4.10;;
3006;SDS011;1513;47.650;10.720;2024-01-27T04:40:09;7.43;;;4.20;;
3006;SDS011;1513;47.650;10.720;2024-01-27T04:42:39;10.37;;;4.17;;
3006;SDS011;1513;47.650;10.720;2024-01-27T04:45:05;7.03;;;4.33;;
3006;SDS011;1513;47.650;10.720;2024-01-27T04:47:32;10.17;;;4.60;;
3006;SDS011;1513;47.650;10.720;2024-01-27T04:49:58;11.23;;;4.87;;
3006;SDS011;1513;47.650;10.720;2024-01-27T04:52:24;7.50;;;4.47;;
3006;SDS011;1513;47.650;10.720;2024-01-27T04:54:51;10.77;;;5.50;;
3006;SDS011;1513;47.650;10.720;2024-01-27T04:57:17;16.10;;;6.97;;
3006;SDS011;1513;47.650;10.720;2024-01-27T04:59:43;9.93;;;5.37;;
3006;SDS011;1513;47.650;10.720;2024-01-27T05:02:10;9.23;;;5.00;;
3006;SDS011;1513;47.650;10.720;2024-01-27T05:04:37;9.90;;;5.00;;
3006;SDS011;1513;47.650;10.720;2024-01-27T05:07:03;9.50;;;5.03;;
3006;SDS011;1513;47.650;10.720;2024-01-27T05:09:30;10.13;;;5.40;;
3006;SDS011;1513;47.650;10.720;2024-01-27T05:11:56;9.93;;;5.00;;
3006;SDS011;1513;47.650;10.720;2024-01-27T05:14:24;18.10;;;7.10;;
3006;SDS011;1513;47.650;10.720;2024-01-27T05:16:50;16.10;;;6.10;;
3006;SDS011;1513;47.650;10.720;2024-01-27T05:19:16;10.80;;;6.50;;
3006;SDS011;1513;47.650;10.720;2024-01-27T05:21:43;16.50;;;6.47;;
3006;SDS011;1513;47.650;10.720;2024-01-27T05:24:09;17.13;;;7.40;;
3006;SDS011;1513;47.650;10.720;2024-01-27T05:26:36;19.63;;;7.90;;
3006;SDS011;1513;47.650;10.720;2024-01-27T05:29:02;13.97;;;6.87;;
3006;SDS011;1513;47.650;10.720;2024-01-27T05:31:28;16.17;;;8.03;;
3006;SDS011;1513;47.650;10.720;2024-01-27T05:33:55;26.67;;;13.97;;
3006;SDS011;1513;47.650;10.720;2024-01-27T05:36:21;31.97;;;14.23;;
3006;SDS011;1513;47.650;10.720;2024-01-27T05:38:48;22.87;;;10.87;;
3006;SDS011;1513;47.650;10.720;2024-01-27T05:41:14;20.03;;;9.17;;
3006;SDS011;1513;47.650;10.720;2024-01-27T05:43:40;14.93;;;6.83;;
3006;SDS011;1513;47.650;10.720;2024-01-27T05:46:08;11.70;;;6.37;;
3006;SDS011;1513;47.650;10.720;2024-01-27T05:48:35;17.57;;;7.77;;
3006;SDS011;1513;47.650;10.720;2024-01-27T05:51:02;11.97;;;6.20;;
3006;SDS011;1513;47.650;10.720;2024-01-27T05:53:28;13.20;;;6.50;;
3006;SDS011;1513;47.650;10.720;2024-01-27T05:55:55;14.80;;;6.33;;
3006;SDS011;1513;47.650;10.720;2024-01-27T05:58:24;15.00;;;6.40;;
3006;SDS011;1513;47.650;10.720;2024-01-27T06:00:50;12.93;;;6.23;;
3006;SDS011;1513;47.650;10.720;2024-01-27T06:03:16;10.70;;;6.40;;
3006;SDS011;1513;47.650;10.720;2024-01-27T06:05:42;10.40;;;5.17;;
3006;SDS011;1513;47.650;10.720;2024-01-27T06:08:09;13.97;;;6.70;;
3006;SDS011;1513;47.650;10.720;2024-01-27T06:10:35;16.97;;;8.30;;
3006;SDS011;1513;47.650;10.720;2024-01-27T06:13:02;14.20;;;6.60;;
3006;SDS011;1513;47.650;10.720;2024-01-27T06:15:28;22.00;;;5.53;;
3006;SDS011;1513;47.650;10.720;2024-01-27T06:17:55;8.43;;;5.27;;
3006;SDS011;1513;47.650;10.720;2024-01-27T06:20:22;12.80;;;5.80;;
3006;SDS011;1513;47.650;10.720;2024-01-27T06:22:48;10.83;;;6.37;;
3006;SDS011;1513;47.650;10.720;2024-01-27T06:25:14;9.90;;;6.60;;
3006;SDS011;1513;47.650;10.720;2024-01-27T06:27:42;10.97;;;5.80;;
3006;SDS011;1513;47.650;10.720;2024-01-27T06:30:08;13.63;;;6.73;;
3006;SDS011;1513;47.650;10.720;2024-01-27T06:32:35;15.90;;;5.90;;
3006;SDS011;1513;47.650;10.720;2024-01-27T06:35:02;11.77;;;6.00;;
3006;SDS011;1513;47.650;10.720;2024-01-27T06:37:29;13.93;;;6.00;;
3006;SDS011;1513;47.650;10.720;2024-01-27T06:39:55;12.00;;;6.13;;
3006;SDS011;1513;47.650;10.720;2024-01-27T06:42:21;19.57;;;7.53;;
3006;SDS011;1513;47.650;10.720;2024-01-27T06:44:47;13.53;;;7.13;;
3006;SDS011;1513;47.650;10.720;2024-01-27T06:47:14;14.57;;;7.20;;
3006;SDS011;1513;47.650;10.720;2024-01-27T06:49:40;13.53;;;7.13;;
3006;SDS011;1513;47.650;10.720;2024-01-27T06:52:06;14.67;;;7.10;;
3006;SDS011;1513;47.650;10.720;2024-01-27T06:54:32;19.40;;;7.53;;
3006;SDS011;1513;47.650;10.720;2024-01-27T06:56:59;17.10;;;7.40;;
3006;SDS011;1513;47.650;10.720;2024-01-27T06:59:25;14.37;;;7.33;;
3006;SDS011;1513;47.650;10.720;2024-01-27T07:01:52;15.83;;;7.87;;
3006;SDS011;1513;47.650;10.720;2024-01-27T07:04:18;18.30;;;8.27;;
3006;SDS011;1513;47.650;10.720;2024-01-27T07:06:44;21.77;;;8.90;;
3006;SDS011;1513;47.650;10.720;2024-01-27T07:09:11;31.77;;;14.43;;
3006;SDS011;1513;47.650;10.720;2024-01-27T07:11:37;25.23;;;11.00;;
3006;SDS011;1513;47.650;10.720;2024-01-27T07:14:03;18.87;;;8.80;;
3006;SDS011;1513;47.650;10.720;2024-01-27T07:16:31;28.00;;;11.23;;
3006;SDS011;1513;47.650;10.720;2024-01-27T07:18:59;29.47;;;12.70;;
3006;SDS011;1513;47.650;10.720;2024-01-27T07:21:25;15.60;;;8.07;;
3006;SDS011;1513;47.650;10.720;2024-01-27T07:23:54;17.87;;;8.70;;
3006;SDS011;1513;47.650;10.720;2024-01-27T07:26:20;22.53;;;10.83;;
3006;SDS011;1513;47.650;10.720;2024-01-27T07:28:46;21.10;;;10.07;;
3006;SDS011;1513;47.650;10.720;2024-01-27T07:31:13;25.60;;;12.83;;
3006;SDS011;1513;47.650;10.720;2024-01-27T07:33:39;30.43;;;14.90;;
3006;SDS011;1513;47.650;10.720;2024-01-27T07:36:06;29.37;;;13.70;;
3006;SDS011;1513;47.650;10.720;2024-01-27T07:38:32;38.53;;;12.10;;
3006;SDS011;1513;47.650;10.720;2024-01-27T07:40:58;43.77;;;20.20;;
3006;SDS011;1513;47.650;10.720;2024-01-27T07:43:25;47.20;;;19.50;;
3006;SDS011;1513;47.650;10.720;2024-01-27T07:45:54;35.40;;;16.53;;
3006;SDS011;1513;47.650;10.720;2024-01-27T07:48:20;45.80;;;19.77;;
3006;SDS011;1513;47.650;10.720;2024-01-27T07:50:47;59.60;;;23.87;;
3006;SDS011;1513;47.650;10.720;2024-01-27T07:53:14;57.73;;;22.30;;
3006;SDS011;1513;47.650;10.720;2024-01-27T07:55:41;28.63;;;11.90;;
3006;SDS011;1513;47.650;10.720;2024-01-27T07:58:07;6.80;;;4.30;;
3006;SDS011;1513;47.650;10.720;2024-01-27T08:00:33;28.60;;;9.80;;
3006;SDS011;1513;47.650;10.720;2024-01-27T08:03:00;20.10;;;10.20;;
3006;SDS011;1513;47.650;10.720;2024-01-27T08:05:26;25.33;;;11.37;;
3006;SDS011;1513;47.650;10.720;2024-01-27T08:07:52;23.77;;;9.20;;
3006;SDS011;1513;47.650;10.720;2024-01-27T08:10:18;24.13;;;9.13;;
3006;SDS011;1513;47.650;10.720;2024-01-27T08:12:45;21.57;;;9.87;;
3006;SDS011;1513;47.650;10.720;2024-01-27T08:15:11;28.33;;;13.27;;
3006;SDS011;1513;47.650;10.720;2024-01-27T08:17:37;29.47;;;14.20;;
3006;SDS011;1513;47.650;10.720;2024-01-27T08:20:04;28.90;;;14.50;;
3006;SDS011;1513;47.650;10.720;2024-01-27T08:22:30;28.73;;;13.00;;
3006;SDS011;1513;47.650;10.720;2024-01-27T08:24:57;24.37;;;12.37;;
3006;SDS011;1513;47.650;10.720;2024-01-27T08:27:23;39.47;;;17.90;;
3006;SDS011;1513;47.650;10.720;2024-01-27T08:29:49;20.30;;;9.70;;
3006;SDS011;1513;47.650;10.720;2024-01-27T08:32:15;18.13;;;9.10;;
3006;SDS011;1513;47.650;10.720;2024-01-27T08:34:41;17.37;;;8.10;;
3006;SDS011;1513;47.650;10.720;2024-01-27T08:37:15;13.90;;;7.40;;
3006;SDS011;1513;47.650;10.720;2024-01-27T08:39:45;16.60;;;7.63;;
3006;SDS011;1513;47.650;10.720;2024-01-27T08:42:11;14.03;;;7.50;;
3006;SDS011;1513;47.650;10.720;2024-01-27T08:44:38;15.73;;;8.00;;
3006;SDS011;1513;47.650;10.720;2024-01-27T08:47:04;16.10;;;8.00;;
3006;SDS011;1513;47.650;10.720;2024-01-27T08:49:31;17.50;;;8.03;;
3006;SDS011;1513;47.650;10.720;2024-01-27T08:51:57;15.47;;;8.00;;
3006;SDS011;1513;47.650;10.720;2024-01-27T08:54:23;20.87;;;8.67;;
3006;SDS011;1513;47.650;10.720;2024-01-27T08:56:50;26.83;;;13.00;;
3006;SDS011;1513;47.650;10.720;2024-01-27T08:59:16;24.90;;;12.57;;
3006;SDS011;1513;47.650;10.720;2024-01-27T09:01:42;21.90;;;9.37;;
3006;SDS011;1513;47.650;10.720;2024-01-27T09:04:09;17.70;;;8.53;;
3006;SDS011;1513;47.650;10.720;2024-01-27T09:06:35;15.50;;;8.13;;
3006;SDS011;1513;47.650;10.720;2024-01-27T09:09:01;22.83;;;9.37;;
3006;SDS011;1513;47.650;10.720;2024-01-27T09:11:28;24.03;;;10.30;;
3006;SDS011;1513;47.650;10.720;2024-01-27T09:13:55;16.67;;;8.07;;
3006;SDS011;1513;47.650;10.720;2024-01-27T09:16:22;16.60;;;7.80;;
3006;SDS011;1513;47.650;10.720;2024-01-27T09:18:48;15.07;;;7.67;;
3006;SDS011;1513;47.650;10.720;2024-01-27T09:21:18;12.73;;;7.10;;
3006;SDS011;1513;47.650;10.720;2024-01-27T09:23:47;15.47;;;7.63;;
3006;SDS011;1513;47.650;10.720;2024-01-27T09:26:13;15.43;;;8.00;;
3006;SDS011;1513;47.650;10.720;2024-01-27T09:28:43;12.90;;;7.10;;
3006;SDS011;1513;47.650;10.720;2024-01-27T09:31:11;13.27;;;7.07;;
3006;SDS011;1513;47.650;10.720;2024-01-27T09:33:37;19.57;;;8.17;;
3006;SDS011;1513;47.650;10.720;2024-01-27T09:36:03;18.13;;;8.17;;
3006;SDS011;1513;47.650;10.720;2024-01-27T09:38:30;15.40;;;6.60;;
3006;SDS011;1513;47.650;10.720;2024-01-27T09:40:56;10.57;;;6.60;;
3006;SDS011;1513;47.650;10.720;2024-01-27T09:43:22;15.03;;;7.93;;
3006;SDS011;1513;47.650;10.720;2024-01-27T09:45:50;12.57;;;6.70;;
3006;SDS011;1513;47.650;10.720;2024-01-27T09:48:17;13.33;;;6.60;;
3006;SDS011;1513;47.650;10.720;2024-01-27T09:50:44;12.87;;;6.80;;
3006;SDS011;1513;47.650;10.720;2024-01-27T09:53:11;13.00;;;7.07;;
3006;SDS011;1513;47.650;10.720;2024-01-27T09:55:37;15.53;;;8.03;;
3006;SDS011;1513;47.650;10.720;2024-01-27T09:58:03;11.20;;;6.90;;
3006;SDS011;1513;47.650;10.720;2024-01-27T10:00:30;10.83;;;6.50;;
3006;SDS011;1513;47.650;10.720;2024-01-27T10:02:58;14.00;;;7.17;;
3006;SDS011;1513;47.650;10.720;2024-01-27T10:05:24;15.27;;;6.47;;
3006;SDS011;1513;47.650;10.720;2024-01-27T10:07:50;14.67;;;6.97;;
3006;SDS011;1513;47.650;10.720;2024-01-27T10:10:16;13.70;;;6.90;;
3006;SDS011;1513;47.650;10.720;2024-01-27T10:12:43;15.77;;;6.40;;
3006;SDS011;1513;47.650;10.720;2024-01-27T10:15:20;11.37;;;6.40;;
3006;SDS011;1513;47.650;10.720;2024-01-27T10:17:47;15.80;;;7.73;;
3006;SDS011;1513;47.650;10.720;2024-01-27T10:20:13;18.10;;;9.23;;
3006;SDS011;1513;47.650;10.720;2024-01-27T10:22:44;18.53;;;9.90;;
3006;SDS011;1513;47.650;10.720;2024-01-27T10:25:11;21.60;;;9.37;;
3006;SDS011;1513;47.650;10.720;2024-01-27T10:27:37;15.10;;;8.37;;
3006;SDS011;1513;47.650;10.720;2024-01-27T10:30:04;16.53;;;7.90;;
3006;SDS011;1513;47.650;10.720;2024-01-27T10:32:32;14.93;;;7.30;;
3006;SDS011;1513;47.650;10.720;2024-01-27T10:35:02;13.30;;;6.67;;
3006;SDS011;1513;47.650;10.720;2024-01-27T10:37:36;8.97;;;5.40;;
3006;SDS011;1513;47.650;10.720;2024-01-27T10:40:06;14.13;;;7.90;;
3006;SDS011;1513;47.650;10.720;2024-01-27T10:42:33;17.07;;;7.70;;
3006;SDS011;1513;47.650;10.720;2024-01-27T10:45:01;12.20;;;7.57;;
3006;SDS011;1513;47.650;10.720;2024-01-27T10:47:28;17.50;;;7.53;;
3006;SDS011;1513;47.650;10.720;2024-01-27T10:49:56;14.93;;;7.53;;
3006;SDS011;1513;47.650;10.720;2024-01-27T10:52:24;11.93;;;6.77;;
3006;SDS011;1513;47.650;10.720;2024-01-27T10:55:00;12.23;;;7.10;;
3006;SDS011;1513;47.650;10.720;2024-01-27T10:57:31;11.90;;;6.70;;
3006;SDS011;1513;47.650;10.720;2024-01-27T11:00:00;19.93;;;7.00;;
3006;SDS011;1513;47.650;10.720;2024-01-27T11:02:32;14.77;;;7.90;;
3006;SDS011;1513;47.650;10.720;2024-01-27T11:05:02;15.60;;;7.63;;
3006;SDS011;1513;47.650;10.720;2024-01-27T11:07:33;15.13;;;7.97;;
3006;SDS011;1513;47.650;10.720;2024-01-27T11:10:00;11.70;;;7.07;;
3006;SDS011;1513;47.650;10.720;2024-01-27T11:12:26;13.17;;;7.60;;
3006;SDS011;1513;47.650;10.720;2024-01-27T11:14:53;17.60;;;9.67;;
3006;SDS011;1513;47.650;10.720;2024-01-27T11:17:20;12.33;;;7.17;;
3006;SDS011;1513;47.650;10.720;2024-01-27T11:19:46;24.10;;;10.43;;
3006;SDS011;1513;47.650;10.720;2024-01-27T11:22:26;17.03;;;8.37;;
3006;SDS011;1513;47.650;10.720;2024-01-27T11:25:06;16.73;;;7.90;;
3006;SDS011;1513;47.650;10.720;2024-01-27T11:27:32;14.17;;;6.43;;
3006;SDS011;1513;47.650;10.720;2024-01-27T11:29:58;15.00;;;8.10;;
3006;SDS011;1513;47.650;10.720;2024-01-27T11:32:25;19.13;;;7.80;;
3006;SDS011;1513;47.650;10.720;2024-01-27T11:34:52;16.70;;;7.80;;
3006;SDS011;1513;47.650;10.720;2024-01-27T11:37:18;12.50;;;7.37;;
3006;SDS011;1513;47.650;10.720;2024-01-27T11:39:50;14.40;;;6.70;;
3006;SDS011;1513;47.650;10.720;2024-01-27T11:42:17;10.83;;;6.20;;
3006;SDS011;1513;47.650;10.720;2024-01-27T11:44:44;12.77;;;6.50;;
3006;SDS011;1513;47.650;10.720;2024-01-27T11:47:17;13.57;;;6.77;;
3006;SDS011;1513;47.650;10.720;2024-01-27T11:49:50;9.83;;;6.40;;
3006;SDS011;1513;47.650;10.720;2024-01-27T11:52:18;13.07;;;7.00;;
3006;SDS011;1513;47.650;10.720;2024-01-27T11:54:44;15.43;;;7.67;;
3006;SDS011;1513;47.650;10.720;2024-01-27T11:57:11;16.60;;;7.73;;
3006;SDS011;1513;47.650;10.720;2024-01-27T11:59:37;9.73;;;6.83;;
3006;SDS011;1513;47.650;10.720;2024-01-27T12:02:03;12.80;;;7.17;;
3006;SDS011;1513;47.650;10.720;2024-01-27T12:04:29;13.93;;;7.80;;
3006;SDS011;1513;47.650;10.720;2024-01-27T12:06:55;11.40;;;6.63;;
3006;SDS011;1513;47.650;10.720;2024-01-27T12:09:21;11.70;;;6.93;;
3006;SDS011;1513;47.650;10.720;2024-01-27T12:11:48;11.07;;;6.70;;
3006;SDS011;1513;47.650;10.720;2024-01-27T12:14:14;11.57;;;6.50;;
3006;SDS011;1513;47.650;10.720;2024-01-27T12:16:42;14.40;;;7.10;;
3006;SDS011;1513;47.650;10.720;2024-01-27T12:19:09;12.63;;;7.50;;
3006;SDS011;1513;47.650;10.720;2024-01-27T12:21:36;12.17;;;7.00;;
3006;SDS011;1513;47.650;10.720;2024-01-27T12:24:02;12.40;;;6.70;;
3006;SDS011;1513;47.650;10.720;2024-01-27T12:26:29;13.97;;;7.40;;
3006;SDS011;1513;47.650;10.720;2024-01-27T12:28:59;15.23;;;7.20;;
3006;SDS011;1513;47.650;10.720;2024-01-27T12:31:25;13.83;;;7.00;;
3006;SDS011;1513;47.650;10.720;2024-01-27T12:33:53;17.00;;;9.10;;
3006;SDS011;1513;47.650;10.720;2024-01-27T12:36:20;22.43;;;9.27;;
3006;SDS011;1513;47.650;10.720;2024-01-27T12:38:54;13.00;;;7.47;;
3006;SDS011;1513;47.650;10.720;2024-01-27T12:41:28;10.83;;;6.70;;
3006;SDS011;1513;47.650;10.720;2024-01-27T12:43:55;12.27;;;6.77;;
3006;SDS011;1513;47.650;10.720;2024-01-27T12:46:21;11.90;;;6.23;;
3006;SDS011;1513;47.650;10.720;2024-01-27T12:48:47;11.80;;;7.30;;
3006;SDS011;1513;47.650;10.720;2024-01-27T12:51:14;13.27;;;8.00;;
3006;SDS011;1513;47.650;10.720;2024-01-27T12:53:41;13.13;;;6.93;;
3006;SDS011;1513;47.650;10.720;2024-01-27T12:56:13;9.70;;;6.03;;
3006;SDS011;1513;47.650;10.720;2024-01-27T12:58:40;13.83;;;7.70;;
3006;SDS011;1513;47.650;10.720;2024-01-27T13:01:06;11.17;;;6.80;;
3006;SDS011;1513;47.650;10.720;2024-01-27T13:03:33;10.50;;;6.60;;
3006;SDS011;1513;47.650;10.720;2024-01-27T13:06:00;12.10;;;7.20;;
3006;SDS011;1513;47.650;10.720;2024-01-27T13:08:26;17.10;;;8.60;;
3006;SDS011;1513;47.650;10.720;2024-01-27T13:10:53;16.10;;;7.97;;
3006;SDS011;1513;47.650;10.720;2024-01-27T13:13:20;16.20;;;10.00;;
3006;SDS011;1513;47.650;10.720;2024-01-27T13:15:46;15.70;;;7.87;;
3006;SDS011;1513;47.650;10.720;2024-01-27T13:18:12;9.00;;;6.27;;
3006;SDS011;1513;47.650;10.720;2024-01-27T13:20:38;16.50;;;10.10;;
3006;SDS011;1513;47.650;10.720;2024-01-27T13:23:08;13.17;;;5.97;;
3006;SDS011;1513;47.650;10.720;2024-01-27T13:25:34;12.83;;;5.60;;
3006;SDS011;1513;47.650;10.720;2024-01-27T13:28:00;12.63;;;7.17;;
3006;SDS011;1513;47.650;10.720;2024-01-27T13:30:27;20.47;;;10.93;;
3006;SDS011;1513;47.650;10.720;2024-01-27T13:32:53;10.60;;;6.80;;
3006;SDS011;1513;47.650;10.720;2024-01-27T13:35:20;8.27;;;5.53;;
3006;SDS011;1513;47.650;10.720;2024-01-27T13:37:46;8.50;;;5.80;;
3006;SDS011;1513;47.650;10.720;2024-01-27T13:40:13;8.80;;;5.20;;
3006;SDS011;1513;47.650;10.720;2024-01-27T13:42:39;8.97;;;5.47;;
3006;SDS011;1513;47.650;10.720;2024-01-27T13:45:05;9.63;;;4.90;;
3006;SDS011;1513;47.650;10.720;2024-01-27T13:47:33;10.60;;;4.90;;
3006;SDS011;1513;47.650;10.720;2024-01-27T13:50:00;7.83;;;4.80;;
3006;SDS011;1513;47.650;10.720;2024-01-27T13:52:26;7.87;;;4.70;;
3006;SDS011;1513;47.650;10.720;2024-01-27T13:54:54;7.73;;;4.80;;
3006;SDS011;1513;47.650;10.720;2024-01-27T13:57:21;13.60;;;7.37;;
3006;SDS011;1513;47.650;10.720;2024-01-27T13:59:47;10.97;;;6.97;;
3006;SDS011;1513;47.650;10.720;2024-01-27T14:02:13;12.70;;;6.70;;
3006;SDS011;1513;47.650;10.720;2024-01-27T14:04:40;8.17;;;5.60;;
3006;SDS011;1513;47.650;10.720;2024-01-27T14:07:06;9.37;;;4.83;;
3006;SDS011;1513;47.650;10.720;2024-01-27T14:09:34;11.33;;;7.93;;
3006;SDS011;1513;47.650;10.720;2024-01-27T14:12:01;8.63;;;5.53;;
3006;SDS011;1513;47.650;10.720;2024-01-27T14:14:27;11.53;;;5.37;;
3006;SDS011;1513;47.650;10.720;2024-01-27T14:16:53;12.27;;;5.27;;
3006;SDS011;1513;47.650;10.720;2024-01-27T14:19:20;15.37;;;4.93;;
3006;SDS011;1513;47.650;10.720;2024-01-27T14:21:46;10.50;;;5.13;;
3006;SDS011;1513;47.650;10.720;2024-01-27T14:24:12;15.10;;;8.50;;
3006;SDS011;1513;47.650;10.720;2024-01-27T14:26:38;6.30;;;4.87;;
3006;SDS011;1513;47.650;10.720;2024-01-27T14:29:04;8.70;;;5.40;;
3006;SDS011;1513;47.650;10.720;2024-01-27T14:31:31;7.47;;;4.70;;
3006;SDS011;1513;47.650;10.720;2024-01-27T14:33:57;14.20;;;7.87;;
3006;SDS011;1513;47.650;10.720;2024-01-27T14:36:24;12.50;;;7.00;;
3006;SDS011;1513;47.650;10.720;2024-01-27T14:38:50;13.00;;;8.00;;
3006;SDS011;1513;47.650;10.720;2024-01-27T14:41:17;10.80;;;6.07;;
3006;SDS011;1513;47.650;10.720;2024-01-27T14:43:43;13.17;;;6.67;;
3006;SDS011;1513;47.650;10.720;2024-01-27T14:46:09;20.93;;;7.70;;
3006;SDS011;1513;47.650;10.720;2024-01-27T14:48:36;14.50;;;7.70;;